Time;durP1;ratioP1;P1;durP2;ratioP2;P2;SDS_P1;SDS_P2;PMS_P1;PMS_P2;Temp;Humidity;BMP_temperature;BMP_pressure;BME280_temperature;BME280_humidity;BME280_pressure;Samples;Min_cycle;Max_cycle;Signal;HPM_P1;HPM_P2
2021/07/01 00:02:00;;;;;;;2.65;1.60;;;;;;;;;;5133520;27;20015;-66
2021/07/01 00:04:26;;;;;;;4.22;1.58;;;;;;;;;;5134198;27;20072;-65
2021/07/01 00:06:52;;;;;;;3.33;1.70;;;;;;;;;;5134914;27;20155;-65
2021/07/01 00:09:19;;;;;;;3.30;1.67;;;;;;;;;;5134862;27;20065;-65
2021/07/01 00:11:45;;;;;;;4.47;1.38;;;;;;;;;;5132809;27;20459;-66
2021/07/01 00:14:11;;;;;;;4.47;1.80;;;;;;;;;;5134611;27;20015;-65
2021/07/01 00:16:38;;;;;;;4.18;1.30;;;;;;;;;;5134313;27;20030;-65
2021/07/01 00:19:04;;;;;;;7.82;1.60;;;;;;;;;;5132905;27;20106;-65
2021/07/01 00:21:30;;;;;;;3.10;1.58;;;;;;;;;;5134774;27;20021;-65
2021/07/01 00:23:56;;;;;;;3.17;1.45;;;;;;;;;;5134578;27;20101;-65
2021/07/01 00:26:23;;;;;;;4.80;1.45;;;;;;;;;;5134303;27;20007;-65
2021/07/01 00:28:49;;;;;;;1.80;1.30;;;;;;;;;;5134071;27;20459;-66
2021/07/01 00:31:15;;;;;;;3.63;2.40;;;;;;;;;;5134389;27;20094;-66
2021/07/01 00:33:40;;;;;;;4.60;1.65;;;;;;;;;;5134081;27;20040;-66
2021/07/01 00:36:06;;;;;;;3.83;1.45;;;;;;;;;;5133615;27;20023;-65
2021/07/01 00:38:33;;;;;;;4.05;1.50;;;;;;;;;;5134076;27;20022;-66
2021/07/01 00:40:59;;;;;;;4.97;1.63;;;;;;;;;;5134317;27;20110;-65
2021/07/01 00:43:25;;;;;;;5.10;1.40;;;;;;;;;;5132194;27;20528;-66
2021/07/01 00:45:51;;;;;;;5.75;1.60;;;;;;;;;;5132967;27;20390;-65
2021/07/01 00:48:18;;;;;;;3.35;1.38;;;;;;;;;;5114020;28;20023;-66
2021/07/01 00:50:43;;;;;;;7.88;1.50;;;;;;;;;;5113406;28;20023;-65
2021/07/01 00:53:09;;;;;;;3.92;1.52;;;;;;;;;;5113462;28;20018;-67
2021/07/01 00:55:36;;;;;;;5.47;1.55;;;;;;;;;;5113465;28;20498;-66
2021/07/01 00:58:04;;;;;;;6.07;1.90;;;;;;;;;;5111606;28;20016;-66
2021/07/01 01:03:03;;;;;;;6.63;1.70;;;;;;;;;;5113219;28;20023;-65
2021/07/01 01:05:30;;;;;;;7.78;1.40;;;;;;;;;;5112761;28;20056;-66
2021/07/01 01:07:56;;;;;;;6.07;1.60;;;;;;;;;;5113121;28;20027;-66
2021/07/01 01:10:22;;;;;;;4.80;1.73;;;;;;;;;;5111370;28;20024;-65
2021/07/01 01:12:49;;;;;;;4.22;1.48;;;;;;;;;;5112887;28;20108;-65
2021/07/01 01:15:14;;;;;;;4.07;1.52;;;;;;;;;;5112834;27;20004;-66
2021/07/01 01:17:41;;;;;;;2.10;1.50;;;;;;;;;;5112839;28;20016;-66
2021/07/01 01:20:08;;;;;;;3.53;1.55;;;;;;;;;;5112574;28;20466;-65
2021/07/01 01:22:34;;;;;;;5.78;1.70;;;;;;;;;;5113105;28;20031;-66
2021/07/01 01:25:00;;;;;;;2.55;1.42;;;;;;;;;;5112965;28;20467;-66
2021/07/01 01:27:26;;;;;;;2.60;1.15;;;;;;;;;;5112656;28;20026;-66
2021/07/01 01:29:52;;;;;;;2.72;1.63;;;;;;;;;;5112778;28;20094;-66
2021/07/01 01:32:19;;;;;;;6.20;1.80;;;;;;;;;;5112751;28;20475;-65
2021/07/01 01:34:44;;;;;;;2.13;1.35;;;;;;;;;;5112693;28;20020;-66
2021/07/01 01:37:10;;;;;;;3.47;1.42;;;;;;;;;;5112729;28;20096;-65
2021/07/01 01:39:36;;;;;;;4.35;1.50;;;;;;;;;;5112726;28;20379;-65
2021/07/01 01:42:02;;;;;;;4.80;1.30;;;;;;;;;;5110945;28;20025;-65
2021/07/01 01:44:28;;;;;;;2.35;1.30;;;;;;;;;;5111224;28;20023;-65
2021/07/01 01:46:54;;;;;;;2.55;1.33;;;;;;;;;;5112598;28;20092;-66
2021/07/01 01:49:21;;;;;;;3.55;1.25;;;;;;;;;;5112423;28;20020;-65
2021/07/01 01:51:46;;;;;;;1.20;1.10;;;;;;;;;;5112627;28;20098;-65
2021/07/01 01:54:12;;;;;;;4.30;1.38;;;;;;;;;;5111500;28;20112;-66
2021/07/01 01:56:45;;;;;;;4.13;1.90;;;;;;;;;;5112335;28;20031;-66
2021/07/01 01:59:10;;;;;;;2.25;1.67;;;;;;;;;;5112483;28;20024;-66
2021/07/01 02:01:36;;;;;;;3.40;1.77;;;;;;;;;;5111235;28;20012;-66
2021/07/01 02:04:03;;;;;;;1.67;1.10;;;;;;;;;;5111919;28;20093;-67
2021/07/01 02:06:28;;;;;;;4.25;1.25;;;;;;;;;;5112403;28;20023;-66
2021/07/01 02:08:54;;;;;;;2.38;1.25;;;;;;;;;;5119304;28;19992;-69
2021/07/01 02:11:20;;;;;;;2.97;2.28;;;;;;;;;;5113948;28;20023;-66
2021/07/01 02:13:46;;;;;;;1.73;1.05;;;;;;;;;;5112343;28;20016;-65
2021/07/01 02:16:11;;;;;;;4.00;0.95;;;;;;;;;;5112343;28;20051;-66
2021/07/01 02:18:38;;;;;;;1.30;0.90;;;;;;;;;;5112172;28;20058;-65
2021/07/01 02:21:04;;;;;;;1.17;0.90;;;;;;;;;;5112410;28;20593;-66
2021/07/01 02:23:30;;;;;;;1.95;0.80;;;;;;;;;;5114882;28;20027;-65
2021/07/01 02:25:56;;;;;;;2.45;0.93;;;;;;;;;;5115790;28;20482;-66
2021/07/01 02:28:22;;;;;;;0.82;0.70;;;;;;;;;;5116039;28;20021;-67
2021/07/01 02:30:48;;;;;;;1.02;0.85;;;;;;;;;;5116375;28;20043;-68
2021/07/01 02:33:14;;;;;;;0.98;0.65;;;;;;;;;;5115708;28;20015;-66
2021/07/01 02:35:39;;;;;;;2.67;0.95;;;;;;;;;;5115912;28;20023;-65
2021/07/01 02:38:05;;;;;;;1.65;1.00;;;;;;;;;;5115794;28;20018;-67
2021/07/01 02:40:31;;;;;;;1.40;0.98;;;;;;;;;;5114200;28;20070;-65
2021/07/01 02:42:58;;;;;;;2.80;0.90;;;;;;;;;;5115873;27;20081;-65
2021/07/01 02:45:23;;;;;;;3.15;0.90;;;;;;;;;;5115926;28;20015;-66
2021/07/01 02:47:48;;;;;;;1.95;1.00;;;;;;;;;;5114944;28;20449;-65
2021/07/01 02:50:14;;;;;;;2.83;1.02;;;;;;;;;;5115625;28;20031;-66
2021/07/01 02:52:39;;;;;;;1.13;1.02;;;;;;;;;;5116028;28;20103;-65
2021/07/01 02:55:07;;;;;;;2.00;0.98;;;;;;;;;;5115191;28;20051;-66
2021/07/01 02:57:33;;;;;;;5.20;1.35;;;;;;;;;;5115379;28;20022;-65
2021/07/01 02:59:59;;;;;;;0.95;0.70;;;;;;;;;;5114265;28;20008;-66
2021/07/01 03:02:28;;;;;;;4.15;1.00;;;;;;;;;;5114344;28;20016;-65
2021/07/01 03:04:53;;;;;;;1.10;1.00;;;;;;;;;;5115733;28;20027;-65
2021/07/01 03:07:19;;;;;;;2.58;0.90;;;;;;;;;;5115609;28;20028;-65
2021/07/01 03:09:44;;;;;;;2.05;0.90;;;;;;;;;;5114792;28;20016;-65
2021/07/01 03:12:09;;;;;;;1.17;1.00;;;;;;;;;;5115345;28;20022;-66
2021/07/01 03:14:35;;;;;;;4.40;1.10;;;;;;;;;;5115409;28;20092;-66
2021/07/01 03:17:01;;;;;;;3.22;1.20;;;;;;;;;;5113458;28;20448;-65
2021/07/01 03:19:26;;;;;;;7.15;1.40;;;;;;;;;;5115367;28;20026;-65
2021/07/01 03:21:51;;;;;;;2.28;0.90;;;;;;;;;;5115162;27;20521;-65
2021/07/01 03:24:17;;;;;;;1.83;0.90;;;;;;;;;;5114690;28;20023;-65
2021/07/01 03:26:42;;;;;;;2.72;0.93;;;;;;;;;;5115547;28;20189;-65
2021/07/01 03:29:08;;;;;;;4.82;1.30;;;;;;;;;;5114867;28;20019;-66
2021/07/01 03:31:34;;;;;;;1.75;1.10;;;;;;;;;;5114470;28;20043;-65
2021/07/01 03:33:59;;;;;;;4.60;1.17;;;;;;;;;;5115040;28;20351;-66
2021/07/01 03:36:24;;;;;;;1.88;1.15;;;;;;;;;;5113875;28;20031;-65
2021/07/01 03:38:50;;;;;;;1.70;0.68;;;;;;;;;;5113288;28;20018;-64
2021/07/01 03:41:15;;;;;;;1.73;1.15;;;;;;;;;;5114595;27;20016;-65
2021/07/01 03:43:44;;;;;;;2.90;1.33;;;;;;;;;;5114455;28;20016;-64
2021/07/01 03:46:09;;;;;;;1.88;1.20;;;;;;;;;;5114172;28;20531;-65
2021/07/01 03:48:35;;;;;;;2.72;1.20;;;;;;;;;;5114348;28;20024;-64
2021/07/01 03:51:01;;;;;;;5.25;1.58;;;;;;;;;;5114914;28;20032;-66
2021/07/01 03:53:26;;;;;;;5.45;1.10;;;;;;;;;;5114492;28;20140;-65
2021/07/01 03:55:51;;;;;;;3.55;0.90;;;;;;;;;;5113996;28;20046;-65
2021/07/01 03:58:17;;;;;;;2.85;1.00;;;;;;;;;;5115015;27;20035;-65
2021/07/01 04:00:42;;;;;;;3.80;1.10;;;;;;;;;;5114564;28;20437;-65
2021/07/01 04:03:08;;;;;;;1.05;0.77;;;;;;;;;;5113928;28;20018;-64
2021/07/01 04:05:33;;;;;;;3.17;0.90;;;;;;;;;;5113113;28;20011;-65
2021/07/01 04:07:58;;;;;;;1.92;0.68;;;;;;;;;;5114577;28;20028;-65
2021/07/01 04:10:24;;;;;;;2.42;0.95;;;;;;;;;;5114088;28;20065;-64
2021/07/01 04:12:49;;;;;;;5.05;0.80;;;;;;;;;;5114431;28;20015;-65
2021/07/01 04:15:14;;;;;;;8.70;1.00;;;;;;;;;;5114005;28;20427;-65
2021/07/01 04:17:40;;;;;;;1.52;0.60;;;;;;;;;;5113727;28;20072;-67
2021/07/01 04:20:06;;;;;;;1.27;0.68;;;;;;;;;;5113959;28;20379;-65
2021/07/01 04:22:31;;;;;;;1.38;0.52;;;;;;;;;;5113851;28;20018;-68
2021/07/01 04:24:57;;;;;;;1.63;0.77;;;;;;;;;;5113582;28;20023;-67
2021/07/01 04:27:22;;;;;;;1.10;0.70;;;;;;;;;;5114014;28;20019;-65
2021/07/01 04:29:48;;;;;;;3.00;0.80;;;;;;;;;;5113824;28;20099;-67
2021/07/01 04:32:13;;;;;;;1.45;0.80;;;;;;;;;;5120667;28;20031;-66
2021/07/01 04:34:38;;;;;;;0.73;0.68;;;;;;;;;;5121481;28;20016;-66
2021/07/01 04:37:04;;;;;;;3.63;0.63;;;;;;;;;;5113523;28;20080;-66
2021/07/01 04:39:30;;;;;;;6.88;1.08;;;;;;;;;;5113196;28;20048;-65
2021/07/01 04:41:56;;;;;;;2.03;0.88;;;;;;;;;;5114078;28;20481;-67
2021/07/01 04:44:21;;;;;;;0.80;0.50;;;;;;;;;;5113677;28;20014;-67
2021/07/01 04:46:46;;;;;;;8.27;1.35;;;;;;;;;;5112838;28;20107;-66
2021/07/01 04:49:12;;;;;;;1.92;0.80;;;;;;;;;;5113386;28;20064;-66
2021/07/01 04:51:37;;;;;;;2.50;0.65;;;;;;;;;;5113438;28;20020;-67
2021/07/01 04:54:02;;;;;;;1.00;0.57;;;;;;;;;;5113042;28;20360;-66
2021/07/01 04:59:16;;;;;;;1.35;0.63;;;;;;;;;;5113675;28;20035;-66
2021/07/01 05:01:42;;;;;;;3.53;0.80;;;;;;;;;;5113034;28;20043;-66
2021/07/01 05:04:08;;;;;;;2.78;0.80;;;;;;;;;;5113056;28;20067;-65
2021/07/01 05:06:34;;;;;;;1.27;0.68;;;;;;;;;;5113218;28;20509;-68
2021/07/01 05:08:59;;;;;;;1.65;0.60;;;;;;;;;;5112744;28;20043;-66
2021/07/01 05:11:25;;;;;;;7.13;0.93;;;;;;;;;;5113291;28;20051;-67
2021/07/01 05:13:50;;;;;;;1.42;0.55;;;;;;;;;;5113246;28;20463;-66
2021/07/01 05:16:15;;;;;;;0.80;0.50;;;;;;;;;;5112455;28;20027;-66
2021/07/01 05:18:41;;;;;;;0.85;0.55;;;;;;;;;;5113056;28;20011;-66
2021/07/01 05:21:06;;;;;;;0.68;0.45;;;;;;;;;;5113323;28;20106;-65
2021/07/01 05:23:31;;;;;;;0.65;0.50;;;;;;;;;;5112213;28;20371;-66
2021/07/01 05:25:57;;;;;;;2.40;0.73;;;;;;;;;;5113180;28;20065;-66
2021/07/01 05:28:22;;;;;;;3.70;0.65;;;;;;;;;;5112983;28;20019;-66
2021/07/01 05:30:49;;;;;;;2.47;0.70;;;;;;;;;;5112749;28;20024;-67
2021/07/01 05:33:15;;;;;;;5.68;0.80;;;;;;;;;;5112841;28;20018;-67
2021/07/01 05:35:40;;;;;;;1.05;0.20;;;;;;;;;;5112990;28;20023;-67
2021/07/01 05:38:06;;;;;;;2.05;0.60;;;;;;;;;;5112273;28;20097;-66
2021/07/01 05:40:31;;;;;;;5.35;0.70;;;;;;;;;;5113034;28;20012;-67
2021/07/01 05:42:57;;;;;;;6.55;0.88;;;;;;;;;;5112861;28;20383;-66
2021/07/01 05:45:22;;;;;;;1.55;0.60;;;;;;;;;;5112044;28;20015;-70
2021/07/01 05:47:48;;;;;;;1.10;0.70;;;;;;;;;;5119810;28;20036;-71
2021/07/01 05:50:13;;;;;;;1.95;0.60;;;;;;;;;;5122186;27;20042;-72
2021/07/01 05:52:42;;;;;;;5.72;0.40;;;;;;;;;;5121426;28;20008;-69
2021/07/01 05:55:08;;;;;;;5.18;1.00;;;;;;;;;;5120599;27;20076;-72
2021/07/01 05:57:33;;;;;;;0.82;0.40;;;;;;;;;;5121529;27;20059;-71
2021/07/01 05:59:59;;;;;;;1.67;0.75;;;;;;;;;;5122220;27;20491;-70
2021/07/01 06:02:25;;;;;;;8.68;0.80;;;;;;;;;;5137432;27;20471;-70
2021/07/01 06:04:50;;;;;;;3.22;0.98;;;;;;;;;;5134183;27;20041;-68
2021/07/01 06:07:23;;;;;;;0.75;0.50;;;;;;;;;;5139064;27;20052;-67
2021/07/01 06:09:51;;;;;;;4.60;0.55;;;;;;;;;;5133140;27;20023;-67
2021/07/01 06:12:17;;;;;;;1.95;0.75;;;;;;;;;;5136294;27;20103;-67
2021/07/01 06:14:43;;;;;;;0.68;0.63;;;;;;;;;;5135871;27;20023;-66
2021/07/01 06:17:10;;;;;;;2.65;0.40;;;;;;;;;;5137067;27;20493;-66
2021/07/01 06:19:36;;;;;;;1.92;0.38;;;;;;;;;;5135919;27;20015;-67
2021/07/01 06:22:02;;;;;;;2.25;0.65;;;;;;;;;;5136269;27;20383;-67
2021/07/01 06:24:29;;;;;;;1.67;0.40;;;;;;;;;;5127901;27;20164;-66
2021/07/01 06:26:55;;;;;;;4.57;0.73;;;;;;;;;;5113096;27;20049;-66
2021/07/01 06:29:21;;;;;;;1.83;0.70;;;;;;;;;;5132576;27;20076;-67
2021/07/01 06:31:46;;;;;;;5.95;0.80;;;;;;;;;;5135105;27;20023;-71
2021/07/01 06:34:14;;;;;;;3.15;0.43;;;;;;;;;;5134994;27;20019;-69
2021/07/01 06:36:41;;;;;;;3.90;0.52;;;;;;;;;;5129520;27;20028;-69
2021/07/01 06:39:06;;;;;;;1.80;0.45;;;;;;;;;;5115737;28;20016;-69
2021/07/01 06:41:33;;;;;;;2.10;0.60;;;;;;;;;;5123895;27;20026;-66
2021/07/01 06:43:58;;;;;;;1.00;0.57;;;;;;;;;;5131177;27;20487;-63
2021/07/01 06:46:29;;;;;;;2.65;0.50;;;;;;;;;;5132925;27;20078;-63
2021/07/01 06:48:55;;;;;;;9.13;1.15;;;;;;;;;;5127925;27;20031;-66
2021/07/01 06:51:21;;;;;;;4.70;0.85;;;;;;;;;;5131227;27;20027;-66
2021/07/01 06:53:47;;;;;;;2.30;0.50;;;;;;;;;;5135772;27;20040;-66
2021/07/01 06:56:13;;;;;;;1.35;0.60;;;;;;;;;;5140498;27;20045;-67
2021/07/01 06:58:42;;;;;;;4.57;0.40;;;;;;;;;;5137504;27;20539;-65
2021/07/01 07:01:08;;;;;;;4.30;0.80;;;;;;;;;;5125801;27;20020;-66
2021/07/01 07:03:33;;;;;;;4.53;0.60;;;;;;;;;;5114528;27;20033;-65
2021/07/01 07:06:01;;;;;;;11.80;0.73;;;;;;;;;;5117891;27;20014;-71
2021/07/01 07:08:26;;;;;;;2.83;0.70;;;;;;;;;;5133083;27;20022;-69
2021/07/01 07:10:52;;;;;;;2.70;0.70;;;;;;;;;;5135474;27;20027;-69
2021/07/01 07:13:19;;;;;;;4.70;0.40;;;;;;;;;;5124052;27;20083;-69
2021/07/01 07:15:44;;;;;;;4.07;0.40;;;;;;;;;;5123828;27;20039;-69
2021/07/01 07:18:16;;;;;;;0.73;0.40;;;;;;;;;;5135327;27;20026;-70
2021/07/01 07:20:43;;;;;;;5.28;0.90;;;;;;;;;;5135175;27;20021;-69
2021/07/01 07:23:08;;;;;;;8.68;0.75;;;;;;;;;;5124537;27;20077;-69
2021/07/01 07:25:41;;;;;;;1.33;0.45;;;;;;;;;;5120590;27;20122;-68
2021/07/01 07:28:08;;;;;;;9.15;0.65;;;;;;;;;;5114747;28;20084;-70
2021/07/01 07:30:33;;;;;;;2.08;0.57;;;;;;;;;;5132410;27;20019;-68
2021/07/01 07:33:02;;;;;;;1.90;0.80;;;;;;;;;;5131636;27;20018;-68
2021/07/01 07:35:27;;;;;;;5.40;0.70;;;;;;;;;;5134269;27;20022;-68
2021/07/01 08:02:23;;;;;;;0.65;0.30;;;;;;;;;;5892682;22;20045;-71
2021/07/01 08:04:49;;;;;;;1.73;0.60;;;;;;;;;;5031685;28;20071;-67
2021/07/01 08:07:16;;;;;;;3.50;0.50;;;;;;;;;;5032410;28;20447;-66
2021/07/01 08:09:42;;;;;;;0.40;0.40;;;;;;;;;;5029526;28;20022;-70
2021/07/01 08:12:07;;;;;;;2.28;0.50;;;;;;;;;;5013041;28;20039;-74
2021/07/01 08:14:35;;;;;;;1.98;0.50;;;;;;;;;;5032595;28;20044;-67
2021/07/01 08:17:01;;;;;;;2.28;0.70;;;;;;;;;;5023417;28;20108;-75
2021/07/01 08:19:27;;;;;;;4.53;0.40;;;;;;;;;;5012879;28;20092;-68
2021/07/01 08:21:52;;;;;;;1.85;0.60;;;;;;;;;;5011732;28;20545;-68
2021/07/01 08:24:18;;;;;;;0.63;0.40;;;;;;;;;;5014731;28;20021;-74
2021/07/01 08:26:44;;;;;;;3.88;0.50;;;;;;;;;;5015071;28;20030;-68
2021/07/01 08:29:10;;;;;;;4.78;0.65;;;;;;;;;;5032367;28;20478;-67
2021/07/01 08:31:35;;;;;;;3.30;0.30;;;;;;;;;;5029198;28;20057;-72
2021/07/01 08:34:04;;;;;;;3.53;0.32;;;;;;;;;;5038684;28;20029;-72
2021/07/01 08:36:30;;;;;;;1.20;0.45;;;;;;;;;;5029274;28;20018;-70
2021/07/01 08:38:56;;;;;;;1.75;0.30;;;;;;;;;;5030755;28;20017;-73
2021/07/01 08:41:25;;;;;;;0.25;0.25;;;;;;;;;;5022580;28;20352;-70
2021/07/01 08:43:55;;;;;;;4.45;0.57;;;;;;;;;;5024183;28;20025;-70
2021/07/01 08:46:22;;;;;;;2.42;0.50;;;;;;;;;;5033394;28;20083;-70
2021/07/01 08:49:07;;;;;;;5.95;0.60;;;;;;;;;;5000958;28;20461;-70
2021/07/01 08:51:34;;;;;;;0.57;0.50;;;;;;;;;;5020064;28;20539;-69
2021/07/01 08:54:10;;;;;;;4.15;0.50;;;;;;;;;;5014125;28;20019;-72
2021/07/01 08:56:37;;;;;;;3.80;0.50;;;;;;;;;;5025939;28;20045;-69
2021/07/01 08:59:05;;;;;;;1.75;0.50;;;;;;;;;;5020993;28;20017;-70
2021/07/01 09:01:30;;;;;;;1.48;0.68;;;;;;;;;;5019341;28;20076;-67
2021/07/01 09:03:57;;;;;;;3.08;0.50;;;;;;;;;;5015474;28;20053;-71
2021/07/01 09:06:24;;;;;;;3.50;0.57;;;;;;;;;;5011656;28;20458;-69
2021/07/01 09:08:51;;;;;;;2.30;0.47;;;;;;;;;;5012748;28;20018;-68
2021/07/01 09:11:18;;;;;;;2.75;0.43;;;;;;;;;;4973871;28;20046;-69
2021/07/01 09:13:46;;;;;;;1.90;0.43;;;;;;;;;;5024480;28;20021;-68
2021/07/01 09:16:14;;;;;;;6.10;0.50;;;;;;;;;;5004862;28;20112;-72
2021/07/01 09:18:40;;;;;;;5.07;0.88;;;;;;;;;;5030320;28;20032;-71
2021/07/01 09:21:06;;;;;;;0.77;0.50;;;;;;;;;;5025979;28;20027;-72
2021/07/01 09:23:31;;;;;;;6.00;0.80;;;;;;;;;;5031152;28;20040;-71
2021/07/01 09:26:00;;;;;;;3.45;0.68;;;;;;;;;;5023340;28;20487;-70
2021/07/01 09:28:25;;;;;;;;;;;;;;;;;;5024097;28;20036;-70
2021/07/01 09:30:54;;;;;;;4.17;0.40;;;;;;;;;;5031232;28;19995;-70
2021/07/01 09:33:19;;;;;;;2.45;0.40;;;;;;;;;;5036931;28;20151;-71
2021/07/01 09:35:45;;;;;;;5.78;0.25;;;;;;;;;;5030025;28;20092;-71
2021/07/01 09:38:11;;;;;;;3.55;0.60;;;;;;;;;;5035908;28;20025;-72
2021/07/01 09:40:37;;;;;;;5.00;0.50;;;;;;;;;;5039272;28;20025;-72
2021/07/01 09:43:04;;;;;;;1.95;0.38;;;;;;;;;;5036746;28;20497;-72
2021/07/01 09:45:31;;;;;;;21.00;2.03;;;;;;;;;;5035718;28;20087;-72
2021/07/01 09:48:05;;;;;;;1.52;0.32;;;;;;;;;;5036593;28;20536;-71
2021/07/01 09:50:33;;;;;;;5.05;0.52;;;;;;;;;;5029066;28;20037;-71
2021/07/01 09:52:59;;;;;;;1.75;0.30;;;;;;;;;;5013544;28;20017;-70
2021/07/01 09:55:28;;;;;;;2.92;0.40;;;;;;;;;;5034495;28;20409;-71
2021/07/01 09:58:03;;;;;;;3.95;0.65;;;;;;;;;;5035973;28;20010;-70
2021/07/01 10:00:28;;;;;;;6.45;0.55;;;;;;;;;;5035160;28;20108;-71
2021/07/01 10:03:08;;;;;;;0.75;0.30;;;;;;;;;;5035886;28;20573;-71
2021/07/01 10:05:33;;;;;;;4.75;0.35;;;;;;;;;;5033615;28;20091;-72
2021/07/01 10:07:59;;;;;;;1.40;0.28;;;;;;;;;;5038588;28;20486;-70
2021/07/01 10:10:25;;;;;;;1.75;0.82;;;;;;;;;;5037789;28;20017;-72
2021/07/01 10:12:54;;;;;;;0.20;0.13;;;;;;;;;;5034608;28;20020;-70
2021/07/01 10:15:26;;;;;;;0.57;0.20;;;;;;;;;;5035554;28;20009;-71
2021/07/01 10:18:10;;;;;;;1.55;0.38;;;;;;;;;;5036135;28;20359;-70
2021/07/01 10:20:39;;;;;;;1.00;0.22;;;;;;;;;;5034336;28;20051;-71
2021/07/01 10:23:19;;;;;;;1.67;0.30;;;;;;;;;;5012099;28;20010;-71
2021/07/01 10:25:45;;;;;;;0.90;0.20;;;;;;;;;;5033160;28;20441;-71
2021/07/01 10:28:12;;;;;;;1.58;0.30;;;;;;;;;;5036202;28;20120;-71
2021/07/01 10:30:38;;;;;;;7.35;0.70;;;;;;;;;;5038587;28;20018;-71
2021/07/01 10:33:04;;;;;;;25.67;2.25;;;;;;;;;;5037512;28;20104;-70
2021/07/01 10:35:30;;;;;;;1.77;0.40;;;;;;;;;;5027785;28;20064;-70
2021/07/01 10:38:01;;;;;;;2.88;0.40;;;;;;;;;;5006711;28;20030;-69
2021/07/01 10:40:27;;;;;;;0.68;0.28;;;;;;;;;;5015915;28;20381;-71
2021/07/01 10:42:55;;;;;;;2.03;0.32;;;;;;;;;;5002619;28;20084;-72
2021/07/01 10:45:21;;;;;;;2.92;0.20;;;;;;;;;;5027337;28;20064;-72
2021/07/01 10:47:46;;;;;;;2.58;0.45;;;;;;;;;;5032423;28;20060;-74
2021/07/01 10:50:27;;;;;;;4.00;0.63;;;;;;;;;;5027841;28;20025;-73
2021/07/01 10:52:53;;;;;;;3.20;0.30;;;;;;;;;;5021504;28;20033;-72
2021/07/01 10:55:18;;;;;;;1.05;0.63;;;;;;;;;;5038849;28;20482;-72
2021/07/01 10:57:56;;;;;;;1.65;0.30;;;;;;;;;;5013741;28;20006;-72
2021/07/01 11:00:40;;;;;;;0.28;0.20;;;;;;;;;;5023527;28;20389;-72
2021/07/01 11:03:10;;;;;;;4.03;0.60;;;;;;;;;;5029110;28;20053;-68
2021/07/01 11:05:36;;;;;;;5.60;0.38;;;;;;;;;;5015269;28;20473;-70
2021/07/01 11:08:01;;;;;;;4.75;0.40;;;;;;;;;;5014418;28;20021;-68
2021/07/01 11:10:34;;;;;;;3.85;0.70;;;;;;;;;;5031361;28;20112;-69
2021/07/01 11:13:05;;;;;;;12.63;3.00;;;;;;;;;;5027924;28;20433;-70
2021/07/01 11:15:30;;;;;;;6.50;1.58;;;;;;;;;;5005034;28;20057;-69
2021/07/01 11:18:05;;;;;;;6.82;1.63;;;;;;;;;;5029321;28;20477;-69
2021/07/01 11:20:31;;;;;;;3.38;0.85;;;;;;;;;;5029449;28;20045;-69
2021/07/01 11:22:57;;;;;;;4.60;1.10;;;;;;;;;;5009615;28;20063;-70
2021/07/01 11:25:24;;;;;;;5.82;1.77;;;;;;;;;;5031696;28;20037;-68
2021/07/01 11:27:50;;;;;;;5.90;1.37;;;;;;;;;;5026668;28;20101;-69
2021/07/01 11:30:23;;;;;;;2.30;1.08;;;;;;;;;;5026908;28;20022;-71
2021/07/01 11:32:48;;;;;;;5.47;1.13;;;;;;;;;;5020452;28;20100;-73
2021/07/01 11:35:22;;;;;;;5.13;1.42;;;;;;;;;;4999338;28;20053;-69
2021/07/01 11:37:48;;;;;;;2.42;0.85;;;;;;;;;;5006835;28;20052;-70
2021/07/01 11:40:18;;;;;;;3.25;0.90;;;;;;;;;;5015217;28;20527;-67
2021/07/01 11:42:44;;;;;;;5.60;0.60;;;;;;;;;;5022854;28;20022;-62
2021/07/01 11:45:11;;;;;;;1.98;0.63;;;;;;;;;;5028734;28;20070;-65
2021/07/01 11:47:36;;;;;;;5.78;1.10;;;;;;;;;;5023615;28;20041;-66
2021/07/01 11:50:04;;;;;;;4.00;0.93;;;;;;;;;;5028928;28;20020;-65
2021/07/01 11:52:31;;;;;;;3.60;0.97;;;;;;;;;;5028421;28;20386;-65
2021/07/01 11:54:58;;;;;;;7.23;1.87;;;;;;;;;;5008086;28;20041;-67
2021/07/01 11:57:23;;;;;;;4.70;0.82;;;;;;;;;;5020893;28;20017;-66
2021/07/01 11:59:50;;;;;;;4.25;0.75;;;;;;;;;;5025726;28;20025;-66
2021/07/01 12:02:15;;;;;;;1.80;0.68;;;;;;;;;;5019137;28;20021;-67
2021/07/01 12:04:41;;;;;;;1.63;0.50;;;;;;;;;;5018384;28;20032;-66
2021/07/01 12:07:09;;;;;;;0.38;0.30;;;;;;;;;;5021533;28;20492;-66
2021/07/01 12:09:37;;;;;;;2.40;0.60;;;;;;;;;;5031778;28;20551;-65
2021/07/01 12:12:03;;;;;;;;;;;;;;;;;;5022971;28;20018;-66
2021/07/01 12:14:35;;;;;;;4.88;0.77;;;;;;;;;;5029438;28;20411;-65
2021/07/01 12:17:01;;;;;;;4.03;1.15;;;;;;;;;;5026194;28;20100;-65
2021/07/01 12:19:45;;;;;;;3.38;0.77;;;;;;;;;;5026784;28;20037;-65
2021/07/01 12:22:29;;;;;;;2.75;0.60;;;;;;;;;;5010155;28;20438;-65
2021/07/01 12:24:55;;;;;;;4.13;0.70;;;;;;;;;;5012081;28;20041;-65
2021/07/01 12:27:30;;;;;;;3.15;0.90;;;;;;;;;;5021436;28;20410;-64
2021/07/01 12:29:55;;;;;;;0.82;0.50;;;;;;;;;;5017908;28;20043;-65
2021/07/01 12:32:24;;;;;;;1.17;0.70;;;;;;;;;;5028218;28;20108;-64
2021/07/01 12:34:50;;;;;;;0.60;0.40;;;;;;;;;;4997128;28;20030;-64
2021/07/01 12:37:15;;;;;;;0.82;0.40;;;;;;;;;;5021823;28;20024;-64
2021/07/01 12:39:41;;;;;;;3.38;0.40;;;;;;;;;;5031989;28;20375;-64
2021/07/01 12:42:14;;;;;;;1.70;0.77;;;;;;;;;;5029204;28;20029;-66
2021/07/01 12:44:44;;;;;;;0.68;0.50;;;;;;;;;;5019826;28;20722;-65
2021/07/01 12:47:28;;;;;;;4.53;0.70;;;;;;;;;;5026712;28;20045;-64
2021/07/01 12:49:56;;;;;;;2.90;0.98;;;;;;;;;;5027807;28;20035;-66
2021/07/01 12:52:22;;;;;;;3.35;0.60;;;;;;;;;;5003469;28;20033;-65
2021/07/01 12:54:52;;;;;;;2.03;0.38;;;;;;;;;;5016909;28;20030;-64
2021/07/01 12:57:17;;;;;;;3.20;0.32;;;;;;;;;;5022637;28;20026;-63
2021/07/01 12:59:44;;;;;;;3.03;0.45;;;;;;;;;;5013131;28;20120;-63
2021/07/01 13:02:11;;;;;;;2.10;0.22;;;;;;;;;;5024593;28;20417;-65
2021/07/01 13:04:41;;;;;;;3.15;0.88;;;;;;;;;;5003552;28;20041;-64
2021/07/01 13:07:08;;;;;;;3.90;0.90;;;;;;;;;;5027888;28;20031;-63
2021/07/01 13:09:37;;;;;;;6.63;1.30;;;;;;;;;;5028104;28;20470;-65
2021/07/01 13:12:07;;;;;;;7.10;0.63;;;;;;;;;;5031424;28;20492;-64
2021/07/01 13:14:36;;;;;;;3.88;0.60;;;;;;;;;;5031567;28;20455;-65
2021/07/01 13:17:03;;;;;;;13.20;0.75;;;;;;;;;;5031825;28;20518;-64
2021/07/01 13:19:29;;;;;;;5.07;0.35;;;;;;;;;;5031658;28;20060;-64
2021/07/01 13:21:55;;;;;;;3.92;0.57;;;;;;;;;;5032002;28;20049;-67
2021/07/01 13:24:22;;;;;;;3.75;0.47;;;;;;;;;;5030972;28;20025;-64
2021/07/01 13:26:48;;;;;;;1.85;0.55;;;;;;;;;;5031968;28;20072;-64
2021/07/01 13:29:32;;;;;;;8.77;0.70;;;;;;;;;;5031308;28;20471;-64
2021/07/01 13:32:01;;;;;;;1.83;0.60;;;;;;;;;;5031273;28;20017;-65
2021/07/01 13:34:28;;;;;;;0.80;0.65;;;;;;;;;;5029638;28;20026;-65
2021/07/01 13:36:53;;;;;;;4.95;0.60;;;;;;;;;;5031894;28;20098;-66
2021/07/01 13:39:31;;;;;;;1.55;0.40;;;;;;;;;;5034541;28;20493;-68
2021/07/01 13:42:19;;;;;;;1.25;0.40;;;;;;;;;;5039318;28;20030;-66
2021/07/01 13:45:06;;;;;;;3.63;0.40;;;;;;;;;;5011711;28;20026;-65
2021/07/01 13:47:45;;;;;;;3.30;0.57;;;;;;;;;;5009866;28;20037;-65
2021/07/01 13:50:33;;;;;;;2.75;0.50;;;;;;;;;;5026912;28;20025;-66
2021/07/01 13:53:04;;;;;;;10.27;0.90;;;;;;;;;;5028532;28;20036;-60
2021/07/01 13:55:30;;;;;;;1.35;0.50;;;;;;;;;;5004815;28;20029;-66
2021/07/01 13:57:56;;;;;;;4.95;1.42;;;;;;;;;;5003411;28;20024;-66
2021/07/01 14:00:23;;;;;;;4.38;0.32;;;;;;;;;;4990083;28;20029;-67
2021/07/01 14:02:54;;;;;;;6.85;1.35;;;;;;;;;;4993198;28;20426;-68
2021/07/01 14:05:29;;;;;;;1.13;0.50;;;;;;;;;;5025894;28;20072;-65
2021/07/01 14:08:01;;;;;;;6.63;0.57;;;;;;;;;;5027605;28;20036;-65
2021/07/01 14:10:30;;;;;;;6.38;0.70;;;;;;;;;;5015518;28;20030;-66
2021/07/01 14:12:56;;;;;;;2.90;0.50;;;;;;;;;;5019459;28;20099;-66
2021/07/01 14:15:21;;;;;;;1.13;0.73;;;;;;;;;;5022842;28;20477;-66
2021/07/01 14:17:47;;;;;;;1.15;0.35;;;;;;;;;;5023091;28;20437;-66
2021/07/01 14:20:12;;;;;;;2.95;0.60;;;;;;;;;;5034671;28;20075;-66
2021/07/01 14:22:40;;;;;;;2.75;0.55;;;;;;;;;;5034750;28;20019;-66
2021/07/01 14:25:23;;;;;;;5.70;0.60;;;;;;;;;;5031116;28;20037;-66
2021/07/01 14:27:59;;;;;;;2.92;0.32;;;;;;;;;;5034500;28;20629;-67
2021/07/01 14:30:38;;;;;;;0.82;0.38;;;;;;;;;;5035276;28;20025;-67
2021/07/01 14:33:22;;;;;;;15.30;5.00;;;;;;;;;;5031060;28;20026;-61
2021/07/01 14:35:57;;;;;;;5.28;0.28;;;;;;;;;;5015412;28;20030;-62
2021/07/01 14:38:26;;;;;;;3.05;0.50;;;;;;;;;;5015089;28;20068;-61
2021/07/01 14:40:59;;;;;;;5.85;0.50;;;;;;;;;;5015627;28;20471;-62
2021/07/01 14:43:29;;;;;;;1.15;0.40;;;;;;;;;;5015767;28;20498;-61
2021/07/01 14:46:01;;;;;;;2.80;0.70;;;;;;;;;;5015045;28;20030;-61
2021/07/01 14:48:30;;;;;;;3.78;0.50;;;;;;;;;;5015545;28;20077;-61
2021/07/01 14:51:11;;;;;;;1.65;0.40;;;;;;;;;;5015882;28;20076;-61
2021/07/01 14:53:36;;;;;;;0.65;0.50;;;;;;;;;;4993084;28;20494;-61
2021/07/01 14:56:02;;;;;;;2.28;0.60;;;;;;;;;;5014285;28;20025;-61
2021/07/01 14:58:27;;;;;;;6.07;0.38;;;;;;;;;;5015679;28;20052;-61
2021/07/01 15:00:57;;;;;;;3.03;0.20;;;;;;;;;;5014958;28;20018;-61
2021/07/01 15:03:22;;;;;;;1.67;0.35;;;;;;;;;;5014987;28;20108;-61
2021/07/01 15:05:47;;;;;;;5.70;0.40;;;;;;;;;;5015297;28;20018;-60
2021/07/01 15:08:13;;;;;;;1.88;0.75;;;;;;;;;;5015000;28;20017;-61
2021/07/01 15:10:39;;;;;;;1.35;0.30;;;;;;;;;;5015239;28;20022;-60
2021/07/01 15:13:06;;;;;;;3.78;0.30;;;;;;;;;;5015141;28;20014;-60
2021/07/01 15:15:35;;;;;;;0.80;0.30;;;;;;;;;;5014492;28;20028;-61